sensor_id;sensor_type;location;lat;lon;timestamp;pressure;altitude;pressure_sealevel;temperature;humidity
16664;BME280;8445;51.270;9.434;2023-12-07T00:00:32;99731.00;;;3.30;81.65
16664;BME280;8445;51.270;9.434;2023-12-07T00:02:58;99716.88;;;3.21;81.87
16664;BME280;8445;51.270;9.434;2023-12-07T00:05:25;99732.81;;;3.29;82.23
16664;BME280;8445;51.270;9.434;2023-12-07T00:07:51;99725.88;;;3.28;81.91
16664;BME280;8445;51.270;9.434;2023-12-07T00:10:17;99723.81;;;3.22;82.05
16664;BME280;8445;51.270;9.434;2023-12-07T00:12:43;99717.00;;;3.19;81.77
16664;BME280;8445;51.270;9.434;2023-12-07T00:15:09;99730.44;;;3.26;81.82
16664;BME280;8445;51.270;9.434;2023-12-07T00:17:35;99736.41;;;3.28;82.00
16664;BME280;8445;51.270;9.434;2023-12-07T00:20:01;99744.03;;;3.31;81.66
16664;BME280;8445;51.270;9.434;2023-12-07T00:22:30;99734.59;;;3.29;81.81
16664;BME280;8445;51.270;9.434;2023-12-07T00:24:56;99732.81;;;3.29;81.78
16664;BME280;8445;51.270;9.434;2023-12-07T00:27:21;99732.53;;;3.32;81.63
16664;BME280;8445;51.270;9.434;2023-12-07T00:29:47;99720.22;;;3.23;81.97
16664;BME280;8445;51.270;9.434;2023-12-07T00:32:14;99742.06;;;3.33;82.06
16664;BME280;8445;51.270;9.434;2023-12-07T00:34:41;99727.81;;;3.26;81.62
16664;BME280;8445;51.270;9.434;2023-12-07T00:37:09;99727.81;;;3.26;81.59
16664;BME280;8445;51.270;9.434;2023-12-07T00:39:37;99743.63;;;3.36;82.06
16664;BME280;8445;51.270;9.434;2023-12-07T00:42:04;99743.78;;;3.34;82.01
16664;BME280;8445;51.270;9.434;2023-12-07T00:44:30;99742.63;;;3.27;81.71
16664;BME280;8445;51.270;9.434;2023-12-07T00:46:57;99736.41;;;3.28;81.88
16664;BME280;8445;51.270;9.434;2023-12-07T00:49:24;99749.97;;;3.33;82.03
16664;BME280;8445;51.270;9.434;2023-12-07T00:51:51;99751.66;;;3.34;81.69
16664;BME280;8445;51.270;9.434;2023-12-07T00:54:18;99758.44;;;3.37;81.78
16664;BME280;8445;51.270;9.434;2023-12-07T00:56:45;99762.75;;;3.38;81.59
16664;BME280;8445;51.270;9.434;2023-12-07T00:59:15;99762.88;;;3.36;81.92
16664;BME280;8445;51.270;9.434;2023-12-07T01:01:42;99755.66;;;3.29;81.85
16664;BME280;8445;51.270;9.434;2023-12-07T01:04:09;99765.50;;;3.36;81.78
16664;BME280;8445;51.270;9.434;2023-12-07T01:06:37;99764.09;;;3.32;82.06
16664;BME280;8445;51.270;9.434;2023-12-07T01:09:04;99768.84;;;3.38;81.82
16664;BME280;8445;51.270;9.434;2023-12-07T01:11:31;99774.09;;;3.38;81.91
16664;BME280;8445;51.270;9.434;2023-12-07T01:13:58;99775.91;;;3.38;81.63
16664;BME280;8445;51.270;9.434;2023-12-07T01:16:25;99780.06;;;3.40;81.80
16664;BME280;8445;51.270;9.434;2023-12-07T01:18:52;99782.13;;;3.37;81.96
16664;BME280;8445;51.270;9.434;2023-12-07T01:21:18;99771.31;;;3.30;81.67
16664;BME280;8445;51.270;9.434;2023-12-07T01:23:45;99779.38;;;3.38;81.94
16664;BME280;8445;51.270;9.434;2023-12-07T01:26:11;99780.34;;;3.37;81.64
16664;BME280;8445;51.270;9.434;2023-12-07T01:28:38;99780.06;;;3.40;81.60
16664;BME280;8445;51.270;9.434;2023-12-07T01:31:04;99782.00;;;3.38;81.81
16664;BME280;8445;51.270;9.434;2023-12-07T01:33:31;99781.03;;;3.39;81.57
16664;BME280;8445;51.270;9.434;2023-12-07T01:36:01;99785.31;;;3.40;81.62
16664;BME280;8445;51.270;9.434;2023-12-07T01:38:30;99785.47;;;3.39;81.75
16664;BME280;8445;51.270;9.434;2023-12-07T01:40:57;99782.69;;;3.40;81.38
16664;BME280;8445;51.270;9.434;2023-12-07T01:43:23;99777.41;;;3.31;81.67
16664;BME280;8445;51.270;9.434;2023-12-07T01:45:52;99795.44;;;3.35;81.34
16664;BME280;8445;51.270;9.434;2023-12-07T01:48:21;99798.63;;;3.39;81.59
16664;BME280;8445;51.270;9.434;2023-12-07T01:50:50;99791.56;;;3.39;81.38
16664;BME280;8445;51.270;9.434;2023-12-07T01:53:18;99769.94;;;3.26;81.66
16664;BME280;8445;51.270;9.434;2023-12-07T01:55:45;99790.88;;;3.37;81.48
16664;BME280;8445;51.270;9.434;2023-12-07T01:58:11;99789.47;;;3.33;81.34
16664;BME280;8445;51.270;9.434;2023-12-07T02:00:41;99786.81;;;3.33;81.32
16664;BME280;8445;51.270;9.434;2023-12-07T02:03:08;99805.41;;;3.41;81.15
16664;BME280;8445;51.270;9.434;2023-12-07T02:05:48;99794.88;;;3.41;81.50
16664;BME280;8445;51.270;9.434;2023-12-07T02:08:17;99773.66;;;3.33;81.58
16664;BME280;8445;51.270;9.434;2023-12-07T02:10:43;99774.38;;;3.35;81.16
16664;BME280;8445;51.270;9.434;2023-12-07T02:13:11;99792.94;;;3.43;81.36
16664;BME280;8445;51.270;9.434;2023-12-07T02:15:40;99788.94;;;3.39;81.30
16664;BME280;8445;51.270;9.434;2023-12-07T02:18:21;99794.59;;;3.44;81.68
16664;BME280;8445;51.270;9.434;2023-12-07T02:21:18;99802.34;;;3.46;81.58
16664;BME280;8445;51.270;9.434;2023-12-07T02:23:51;99789.91;;;3.38;81.47
16664;BME280;8445;51.270;9.434;2023-12-07T02:26:36;99790.44;;;3.42;81.45
16664;BME280;8445;51.270;9.434;2023-12-07T02:29:03;99810.16;;;3.47;81.10
16664;BME280;8445;51.270;9.434;2023-12-07T02:31:30;99813.72;;;3.46;81.30
16664;BME280;8445;51.270;9.434;2023-12-07T02:33:57;99816.34;;;3.46;81.11
16664;BME280;8445;51.270;9.434;2023-12-07T02:36:27;99814.69;;;3.45;81.11
16664;BME280;8445;51.270;9.434;2023-12-07T02:38:58;99819.81;;;3.47;81.58
16664;BME280;8445;51.270;9.434;2023-12-07T02:41:28;99828.13;;;3.42;81.21
16664;BME280;8445;51.270;9.434;2023-12-07T02:43:55;99822.47;;;3.37;81.13
16664;BME280;8445;51.270;9.434;2023-12-07T02:46:21;99827.44;;;3.31;81.17
16664;BME280;8445;51.270;9.434;2023-12-07T02:48:47;99827.84;;;3.26;81.42
16664;BME280;8445;51.270;9.434;2023-12-07T02:51:13;99823.00;;;3.21;81.30
16664;BME280;8445;51.270;9.434;2023-12-07T02:53:38;99842.53;;;3.29;81.44
16664;BME280;8445;51.270;9.434;2023-12-07T02:56:05;99853.88;;;3.29;81.23
16664;BME280;8445;51.270;9.434;2023-12-07T02:58:31;99858.03;;;3.32;81.60
16664;BME280;8445;51.270;9.434;2023-12-07T03:00:57;99856.25;;;3.32;81.63
16664;BME280;8445;51.270;9.434;2023-12-07T03:03:22;99850.16;;;3.32;81.32
16664;BME280;8445;51.270;9.434;2023-12-07T03:05:48;99854.56;;;3.31;81.94
16664;BME280;8445;51.270;9.434;2023-12-07T03:08:14;99859.69;;;3.33;81.84
16664;BME280;8445;51.270;9.434;2023-12-07T03:10:40;99825.88;;;3.18;81.54
16664;BME280;8445;51.270;9.434;2023-12-07T03:13:06;99850.44;;;3.38;81.43
16664;BME280;8445;51.270;9.434;2023-12-07T03:15:32;99851.97;;;3.41;81.71
16664;BME280;8445;51.270;9.434;2023-12-07T03:17:58;99842.69;;;3.37;81.38
16664;BME280;8445;51.270;9.434;2023-12-07T03:20:23;99855.03;;;3.46;81.36
16664;BME280;8445;51.270;9.434;2023-12-07T03:22:49;99861.00;;;3.48;81.16
16664;BME280;8445;51.270;9.434;2023-12-07T03:25:15;99859.22;;;3.48;81.57
16664;BME280;8445;51.270;9.434;2023-12-07T03:27:41;99860.88;;;3.49;81.31
16664;BME280;8445;51.270;9.434;2023-12-07T03:30:07;99865.84;;;3.52;81.58
16664;BME280;8445;51.270;9.434;2023-12-07T03:32:33;99862.66;;;3.49;81.50
16664;BME280;8445;51.270;9.434;2023-12-07T03:34:59;99859.75;;;3.52;81.25
16664;BME280;8445;51.270;9.434;2023-12-07T03:37:25;99851.97;;;3.41;81.27
16664;BME280;8445;51.270;9.434;2023-12-07T03:39:51;99868.91;;;3.48;81.32
16664;BME280;8445;51.270;9.434;2023-12-07T03:42:17;99871.66;;;3.46;81.32
16664;BME280;8445;51.270;9.434;2023-12-07T03:44:43;99860.28;;;3.46;81.53
16664;BME280;8445;51.270;9.434;2023-12-07T03:47:09;99864.03;;;3.43;81.40
16664;BME280;8445;51.270;9.434;2023-12-07T03:49:35;99868.47;;;3.43;81.48
16664;BME280;8445;51.270;9.434;2023-12-07T03:52:01;99862.50;;;3.41;81.27
16664;BME280;8445;51.270;9.434;2023-12-07T03:54:27;99863.31;;;3.32;81.40
16664;BME280;8445;51.270;9.434;2023-12-07T03:56:53;99873.31;;;3.38;81.76
16664;BME280;8445;51.270;9.434;2023-12-07T03:59:19;99868.88;;;3.38;81.72
16664;BME280;8445;51.270;9.434;2023-12-07T04:01:45;99875.81;;;3.39;81.93
16664;BME280;8445;51.270;9.434;2023-12-07T04:04:11;99865.28;;;3.39;81.77
16664;BME280;8445;51.270;9.434;2023-12-07T04:06:37;99866.63;;;3.34;81.86
16664;BME280;8445;51.270;9.434;2023-12-07T04:09:03;99866.09;;;3.40;81.66
16664;BME280;8445;51.270;9.434;2023-12-07T04:11:30;99860.97;;;3.38;81.67
16664;BME280;8445;51.270;9.434;2023-12-07T04:13:55;99869.44;;;3.42;81.42
16664;BME280;8445;51.270;9.434;2023-12-07T04:16:21;99861.81;;;3.39;81.33
16664;BME280;8445;51.270;9.434;2023-12-07T04:18:47;99869.03;;;3.37;81.63
16664;BME280;8445;51.270;9.434;2023-12-07T04:21:13;99844.16;;;3.20;81.04
16664;BME280;8445;51.270;9.434;2023-12-07T04:23:39;99867.59;;;3.33;81.91
16664;BME280;8445;51.270;9.434;2023-12-07T04:26:05;99856.78;;;3.26;81.36
16664;BME280;8445;51.270;9.434;2023-12-07T04:28:31;99849.19;;;3.23;81.31
16664;BME280;8445;51.270;9.434;2023-12-07T04:30:57;99857.06;;;3.23;81.79
16664;BME280;8445;51.270;9.434;2023-12-07T04:33:23;99866.78;;;3.22;81.68
16664;BME280;8445;51.270;9.434;2023-12-07T04:35:49;99866.34;;;3.27;81.17
16664;BME280;8445;51.270;9.434;2023-12-07T04:38:15;99874.25;;;3.27;81.56
16664;BME280;8445;51.270;9.434;2023-12-07T04:40:40;99872.72;;;3.24;81.54
16664;BME280;8445;51.270;9.434;2023-12-07T04:43:08;99878.53;;;3.28;81.32
16664;BME280;8445;51.270;9.434;2023-12-07T04:45:34;99875.09;;;3.28;81.76
16664;BME280;8445;51.270;9.434;2023-12-07T04:48:03;99876.59;;;3.30;81.42
16664;BME280;8445;51.270;9.434;2023-12-07T04:50:29;99856.38;;;3.21;81.50
16664;BME280;8445;51.270;9.434;2023-12-07T04:52:55;99874.81;;;3.31;81.38
16664;BME280;8445;51.270;9.434;2023-12-07T04:55:21;99874.25;;;3.27;81.59
16664;BME280;8445;51.270;9.434;2023-12-07T04:57:47;99865.38;;;3.28;81.45
16664;BME280;8445;51.270;9.434;2023-12-07T05:00:13;99874.81;;;3.31;81.67
16664;BME280;8445;51.270;9.434;2023-12-07T05:02:39;99868.97;;;3.27;81.53
16664;BME280;8445;51.270;9.434;2023-12-07T05:05:05;99856.38;;;3.21;81.44
16664;BME280;8445;51.270;9.434;2023-12-07T05:07:31;99882.84;;;3.29;81.73
16664;BME280;8445;51.270;9.434;2023-12-07T05:09:57;99859.66;;;3.13;81.38
16664;BME280;8445;51.270;9.434;2023-12-07T05:12:23;99883.66;;;3.30;81.74
16664;BME280;8445;51.270;9.434;2023-12-07T05:14:49;99872.72;;;3.24;81.58
16664;BME280;8445;51.270;9.434;2023-12-07T05:17:16;99847.31;;;3.04;81.30
16664;BME280;8445;51.270;9.434;2023-12-07T05:19:41;99875.75;;;3.20;81.22
16664;BME280;8445;51.270;9.434;2023-12-07T05:22:07;99874.34;;;3.16;81.48
16664;BME280;8445;51.270;9.434;2023-12-07T05:24:35;99855.47;;;3.01;81.67
16664;BME280;8445;51.270;9.434;2023-12-07T05:27:01;99862.94;;;3.06;81.38
16664;BME280;8445;51.270;9.434;2023-12-07T05:29:26;99866.56;;;3.05;81.36
16664;BME280;8445;51.270;9.434;2023-12-07T05:31:52;99876.84;;;3.08;81.41
16664;BME280;8445;51.270;9.434;2023-12-07T05:34:18;99872.78;;;3.04;81.91
16664;BME280;8445;51.270;9.434;2023-12-07T05:36:44;99890.41;;;3.13;81.76
16664;BME280;8445;51.270;9.434;2023-12-07T05:39:12;99857.09;;;2.92;81.50
16664;BME280;8445;51.270;9.434;2023-12-07T05:41:39;99874.44;;;3.05;81.53
16664;BME280;8445;51.270;9.434;2023-12-07T05:44:05;99878.50;;;3.09;82.00
16664;BME280;8445;51.270;9.434;2023-12-07T05:46:32;99879.00;;;3.03;82.02
16664;BME280;8445;51.270;9.434;2023-12-07T05:48:58;99886.41;;;3.09;81.85
16664;BME280;8445;51.270;9.434;2023-12-07T05:51:24;99894.84;;;3.12;81.63
16664;BME280;8445;51.270;9.434;2023-12-07T05:53:50;99893.31;;;3.10;82.06
16664;BME280;8445;51.270;9.434;2023-12-07T05:56:19;99886.53;;;3.07;81.89
16664;BME280;8445;51.270;9.434;2023-12-07T05:58:48;99882.88;;;2.99;82.01
16664;BME280;8445;51.270;9.434;2023-12-07T06:01:17;99889.41;;;3.04;81.97
16664;BME280;8445;51.270;9.434;2023-12-07T06:03:44;99899.41;;;3.10;81.99
16664;BME280;8445;51.270;9.434;2023-12-07T06:06:11;99896.19;;;3.07;82.00
16664;BME280;8445;51.270;9.434;2023-12-07T06:08:38;99887.75;;;3.03;81.92
16664;BME280;8445;51.270;9.434;2023-12-07T06:11:04;99896.78;;;3.10;81.71
16664;BME280;8445;51.270;9.434;2023-12-07T06:13:30;99902.47;;;3.15;82.18
16664;BME280;8445;51.270;9.434;2023-12-07T06:15:55;99904.25;;;3.15;81.90
16664;BME280;8445;51.270;9.434;2023-12-07T06:18:21;99908.28;;;3.19;82.07
16664;BME280;8445;51.270;9.434;2023-12-07T06:20:47;99911.19;;;3.16;82.09
16664;BME280;8445;51.270;9.434;2023-12-07T06:23:13;99918.81;;;3.19;81.64
16664;BME280;8445;51.270;9.434;2023-12-07T06:25:40;99917.84;;;3.20;81.84
16664;BME280;8445;51.270;9.434;2023-12-07T06:28:06;99922.03;;;3.22;81.78
16664;BME280;8445;51.270;9.434;2023-12-07T06:30:32;99925.75;;;3.20;82.00
16664;BME280;8445;51.270;9.434;2023-12-07T06:32:58;99925.06;;;3.18;82.13
16664;BME280;8445;51.270;9.434;2023-12-07T06:35:24;99915.06;;;3.12;82.09
16664;BME280;8445;51.270;9.434;2023-12-07T06:37:50;99914.50;;;3.08;82.24
16664;BME280;8445;51.270;9.434;2023-12-07T06:40:16;99919.91;;;3.16;81.93
16664;BME280;8445;51.270;9.434;2023-12-07T06:42:41;99919.22;;;3.14;82.24
16664;BME280;8445;51.270;9.434;2023-12-07T06:45:08;99914.22;;;3.11;81.86
16664;BME280;8445;51.270;9.434;2023-12-07T06:47:40;99914.09;;;3.13;82.04
16664;BME280;8445;51.270;9.434;2023-12-07T06:50:08;99923.66;;;3.14;82.24
16664;BME280;8445;51.270;9.434;2023-12-07T06:53:21;99923.66;;;3.14;82.38
16664;BME280;8445;51.270;9.434;2023-12-07T06:55:47;99922.81;;;3.13;82.18
16664;BME280;8445;51.270;9.434;2023-12-07T06:58:13;99929.19;;;3.11;82.14
16664;BME280;8445;51.270;9.434;2023-12-07T07:00:39;99932.53;;;3.13;82.17
16664;BME280;8445;51.270;9.434;2023-12-07T07:03:05;99939.59;;;3.12;82.16
16664;BME280;8445;51.270;9.434;2023-12-07T07:05:34;99938.63;;;3.13;82.22
16664;BME280;8445;51.270;9.434;2023-12-07T07:08:00;99938.63;;;3.13;82.50
16664;BME280;8445;51.270;9.434;2023-12-07T07:10:26;99942.06;;;3.14;82.30
16664;BME280;8445;51.270;9.434;2023-12-07T07:12:52;99942.06;;;3.14;82.19
16664;BME280;8445;51.270;9.434;2023-12-07T07:15:18;99942.06;;;3.14;82.62
16664;BME280;8445;51.270;9.434;2023-12-07T07:17:45;99942.91;;;3.14;82.38
16664;BME280;8445;51.270;9.434;2023-12-07T07:20:11;99948.88;;;3.16;81.92
16664;BME280;8445;51.270;9.434;2023-12-07T07:22:37;99941.09;;;3.15;82.43
16664;BME280;8445;51.270;9.434;2023-12-07T07:25:04;99936.38;;;3.09;82.37
16664;BME280;8445;51.270;9.434;2023-12-07T07:27:30;99951.63;;;3.15;82.42
16664;BME280;8445;51.270;9.434;2023-12-07T07:29:56;99940.41;;;3.13;82.65
16664;BME280;8445;51.270;9.434;2023-12-07T07:32:21;99951.38;;;3.18;82.57
16664;BME280;8445;51.270;9.434;2023-12-07T07:34:47;99951.97;;;3.21;82.30
16664;BME280;8445;51.270;9.434;2023-12-07T07:37:13;99964.72;;;3.26;82.04
16664;BME280;8445;51.270;9.434;2023-12-07T07:39:39;99947.75;;;3.19;82.01
16664;BME280;8445;51.270;9.434;2023-12-07T07:42:05;99967.34;;;3.26;82.19
16664;BME280;8445;51.270;9.434;2023-12-07T07:44:31;99950.16;;;3.22;82.14
16664;BME280;8445;51.270;9.434;2023-12-07T07:46:59;99947.75;;;3.19;81.97
16664;BME280;8445;51.270;9.434;2023-12-07T07:49:25;99967.78;;;3.31;82.19
16664;BME280;8445;51.270;9.434;2023-12-07T07:51:51;99966.66;;;3.34;82.10
16664;BME280;8445;51.270;9.434;2023-12-07T07:54:17;99975.16;;;3.37;82.15
16664;BME280;8445;51.270;9.434;2023-12-07T07:56:43;99966.16;;;3.40;81.94
16664;BME280;8445;51.270;9.434;2023-12-07T07:59:09;99971.97;;;3.43;81.98
16664;BME280;8445;51.270;9.434;2023-12-07T08:01:36;99961.28;;;3.35;81.83
16664;BME280;8445;51.270;9.434;2023-12-07T08:04:01;99972.53;;;3.47;81.88
16664;BME280;8445;51.270;9.434;2023-12-07T08:06:27;99962.56;;;3.41;81.62
16664;BME280;8445;51.270;9.434;2023-12-07T08:08:53;99983.34;;;3.44;81.64
16664;BME280;8445;51.270;9.434;2023-12-07T08:11:19;99970.03;;;3.45;81.79
16664;BME280;8445;51.270;9.434;2023-12-07T08:13:45;99976.03;;;3.47;81.83
16664;BME280;8445;51.270;9.434;2023-12-07T08:16:10;99971.47;;;3.49;81.84
16664;BME280;8445;51.270;9.434;2023-12-07T08:18:36;99967.72;;;3.52;81.63
16664;BME280;8445;51.270;9.434;2023-12-07T08:21:04;99970.78;;;3.57;81.40
16664;BME280;8445;51.270;9.434;2023-12-07T08:23:30;99961.63;;;3.51;81.83
16664;BME280;8445;51.270;9.434;2023-12-07T08:25:55;99970.13;;;3.65;81.25
16664;BME280;8445;51.270;9.434;2023-12-07T08:28:22;99972.47;;;3.68;81.54
16664;BME280;8445;51.270;9.434;2023-12-07T08:30:48;99965.28;;;3.70;81.26
16664;BME280;8445;51.270;9.434;2023-12-07T08:33:14;99970.16;;;3.74;81.38
16664;BME280;8445;51.270;9.434;2023-12-07T08:35:40;99967.63;;;3.73;81.52
16664;BME280;8445;51.270;9.434;2023-12-07T08:38:06;99960.72;;;3.81;81.49
16664;BME280;8445;51.270;9.434;2023-12-07T08:40:32;99964.88;;;3.84;81.23
16664;BME280;8445;51.270;9.434;2023-12-07T08:42:58;99963.53;;;3.90;80.99
16664;BME280;8445;51.270;9.434;2023-12-07T08:45:24;99976.00;;;3.97;81.27
16664;BME280;8445;51.270;9.434;2023-12-07T08:47:50;99958.25;;;3.99;81.19
16664;BME280;8445;51.270;9.434;2023-12-07T08:50:19;99954.38;;;4.03;80.98
16664;BME280;8445;51.270;9.434;2023-12-07T08:52:45;99960.06;;;4.08;80.90
16664;BME280;8445;51.270;9.434;2023-12-07T08:55:12;99945.22;;;4.07;80.83
16664;BME280;8445;51.270;9.434;2023-12-07T08:57:41;99938.28;;;4.06;80.66
16664;BME280;8445;51.270;9.434;2023-12-07T09:00:07;99943.72;;;4.14;80.54
16664;BME280;8445;51.270;9.434;2023-12-07T09:02:33;99962.44;;;4.31;80.49
16664;BME280;8445;51.270;9.434;2023-12-07T09:04:59;99949.41;;;4.29;80.19
16664;BME280;8445;51.270;9.434;2023-12-07T09:07:25;99959.53;;;4.43;80.16
16664;BME280;8445;51.270;9.434;2023-12-07T09:09:50;99948.41;;;4.40;80.47
16664;BME280;8445;51.270;9.434;2023-12-07T09:12:16;99964.78;;;4.53;80.43
16664;BME280;8445;51.270;9.434;2023-12-07T09:14:42;99964.91;;;4.61;80.44
16664;BME280;8445;51.270;9.434;2023-12-07T09:17:08;99965.31;;;4.66;80.76
16664;BME280;8445;51.270;9.434;2023-12-07T09:19:34;99965.75;;;4.71;80.23
16664;BME280;8445;51.270;9.434;2023-12-07T09:22:00;99945.03;;;4.67;80.10
16664;BME280;8445;51.270;9.434;2023-12-07T09:24:26;99958.38;;;4.75;79.83
16664;BME280;8445;51.270;9.434;2023-12-07T09:26:52;99967.34;;;4.92;79.94
16664;BME280;8445;51.270;9.434;2023-12-07T09:29:18;99964.84;;;5.00;79.69
16664;BME280;8445;51.270;9.434;2023-12-07T09:31:43;99950.13;;;4.97;79.44
16664;BME280;8445;51.270;9.434;2023-12-07T09:34:09;99950.09;;;5.07;79.52
16664;BME280;8445;51.270;9.434;2023-12-07T09:36:36;99959.22;;;5.22;79.40
16664;BME280;8445;51.270;9.434;2023-12-07T09:39:04;99970.56;;;5.32;78.91
16664;BME280;8445;51.270;9.434;2023-12-07T09:41:34;99970.00;;;5.39;78.84
16664;BME280;8445;51.270;9.434;2023-12-07T09:44:00;99972.03;;;5.45;78.92
16664;BME280;8445;51.270;9.434;2023-12-07T09:46:28;99951.75;;;5.45;78.67
16664;BME280;8445;51.270;9.434;2023-12-07T09:48:54;99964.63;;;5.58;78.55
16664;BME280;8445;51.270;9.434;2023-12-07T09:51:22;99964.19;;;5.62;78.29
16664;BME280;8445;51.270;9.434;2023-12-07T09:53:53;99970.69;;;5.68;78.15
16664;BME280;8445;51.270;9.434;2023-12-07T09:56:20;99949.69;;;5.67;77.67
16664;BME280;8445;51.270;9.434;2023-12-07T09:58:46;99966.03;;;5.80;77.63
16664;BME280;8445;51.270;9.434;2023-12-07T10:01:12;99976.47;;;5.81;77.33
16664;BME280;8445;51.270;9.434;2023-12-07T10:03:40;99960.66;;;5.72;77.19
16664;BME280;8445;51.270;9.434;2023-12-07T10:06:06;99953.31;;;5.66;77.38
16664;BME280;8445;51.270;9.434;2023-12-07T10:08:34;99958.91;;;5.62;77.12
16664;BME280;8445;51.270;9.434;2023-12-07T10:11:14;99961.59;;;5.53;76.66
16664;BME280;8445;51.270;9.434;2023-12-07T10:13:44;99981.94;;;5.43;76.93
16664;BME280;8445;51.270;9.434;2023-12-07T10:16:15;99981.28;;;5.31;77.41
16664;BME280;8445;51.270;9.434;2023-12-07T10:18:42;99980.63;;;5.19;77.13
16664;BME280;8445;51.270;9.434;2023-12-07T10:21:12;99969.84;;;5.03;77.18
16664;BME280;8445;51.270;9.434;2023-12-07T10:23:38;99964.19;;;4.88;76.94
16664;BME280;8445;51.270;9.434;2023-12-07T10:26:06;99969.47;;;4.79;77.21
16664;BME280;8445;51.270;9.434;2023-12-07T10:28:35;99958.38;;;4.65;77.73
16664;BME280;8445;51.270;9.434;2023-12-07T10:31:02;99972.84;;;4.61;77.61
16664;BME280;8445;51.270;9.434;2023-12-07T10:33:28;99945.50;;;4.43;77.57
16664;BME280;8445;51.270;9.434;2023-12-07T10:35:55;99967.69;;;4.40;77.95
16664;BME280;8445;51.270;9.434;2023-12-07T10:38:21;99942.88;;;4.24;78.05
16664;BME280;8445;51.270;9.434;2023-12-07T10:40:49;99958.53;;;4.25;78.09
16664;BME280;8445;51.270;9.434;2023-12-07T10:43:20;99956.34;;;4.21;78.34
16664;BME280;8445;51.270;9.434;2023-12-07T10:45:47;99933.16;;;4.05;78.00
16664;BME280;8445;51.270;9.434;2023-12-07T10:48:14;99950.50;;;4.07;78.16
16664;BME280;8445;51.270;9.434;2023-12-07T10:50:47;99934.66;;;3.98;78.64
16664;BME280;8445;51.270;9.434;2023-12-07T10:53:29;99946.19;;;4.06;78.41
16664;BME280;8445;51.270;9.434;2023-12-07T10:56:02;99940.53;;;4.01;78.23
16664;BME280;8445;51.270;9.434;2023-12-07T10:58:28;99937.88;;;4.01;78.61
16664;BME280;8445;51.270;9.434;2023-12-07T11:00:55;99935.25;;;4.01;78.39
16664;BME280;8445;51.270;9.434;2023-12-07T11:03:22;99924.97;;;3.98;78.71
16664;BME280;8445;51.270;9.434;2023-12-07T11:05:50;99925.66;;;4.00;78.23
16664;BME280;8445;51.270;9.434;2023-12-07T11:08:56;99920.38;;;4.00;78.65
16664;BME280;8445;51.270;9.434;2023-12-07T11:11:42;99928.28;;;4.00;78.81
16664;BME280;8445;51.270;9.434;2023-12-07T11:14:11;99919.69;;;3.98;78.74
16664;BME280;8445;51.270;9.434;2023-12-07T11:16:44;99916.91;;;4.00;78.49
16664;BME280;8445;51.270;9.434;2023-12-07T11:22:03;99923.03;;;4.29;78.07
16664;BME280;8445;51.270;9.434;2023-12-07T11:24:29;99893.91;;;4.31;78.26
16664;BME280;8445;51.270;9.434;2023-12-07T11:26:56;99906.34;;;4.38;77.83
16664;BME280;8445;51.270;9.434;2023-12-07T11:29:28;99893.22;;;4.29;77.68
16664;BME280;8445;51.270;9.434;2023-12-07T11:32:02;99887.09;;;4.28;77.47
16664;BME280;8445;51.270;9.434;2023-12-07T11:34:43;99891.94;;;4.33;77.85
16664;BME280;8445;51.270;9.434;2023-12-07T11:37:11;99892.22;;;4.30;77.58
16664;BME280;8445;51.270;9.434;2023-12-07T11:39:42;99894.19;;;4.28;77.50
16664;BME280;8445;51.270;9.434;2023-12-07T11:42:16;99899.44;;;4.28;77.72
16664;BME280;8445;51.270;9.434;2023-12-07T11:44:44;99898.88;;;4.34;77.37
16664;BME280;8445;51.270;9.434;2023-12-07T11:47:18;99890.28;;;4.32;77.30
16664;BME280;8445;51.270;9.434;2023-12-07T11:49:47;99891.94;;;4.33;77.75
16664;BME280;8445;51.270;9.434;2023-12-07T11:52:18;99892.78;;;4.33;77.06
16664;BME280;8445;51.270;9.434;2023-12-07T11:54:50;99909.13;;;4.37;77.44
16664;BME280;8445;51.270;9.434;2023-12-07T11:57:17;99901.66;;;4.42;77.36
16664;BME280;8445;51.270;9.434;2023-12-07T11:59:47;99886.81;;;4.41;77.69
16664;BME280;8445;51.270;9.434;2023-12-07T12:02:15;99896.63;;;4.58;77.32
16664;BME280;8445;51.270;9.434;2023-12-07T12:04:41;99870.41;;;4.57;77.01
16664;BME280;8445;51.270;9.434;2023-12-07T12:07:08;99882.53;;;4.77;77.00
16664;BME280;8445;51.270;9.434;2023-12-07T12:09:34;99871.00;;;4.78;76.81
16664;BME280;8445;51.270;9.434;2023-12-07T12:12:00;99872.09;;;4.85;75.95
16664;BME280;8445;51.270;9.434;2023-12-07T12:14:27;99873.22;;;4.83;76.22
16664;BME280;8445;51.270;9.434;2023-12-07T12:16:56;99883.19;;;4.89;76.17
16664;BME280;8445;51.270;9.434;2023-12-07T12:19:23;99883.16;;;4.98;75.94
16664;BME280;8445;51.270;9.434;2023-12-07T12:21:50;99884.69;;;5.01;75.74
16664;BME280;8445;51.270;9.434;2023-12-07T12:24:17;99887.03;;;5.04;75.58
16664;BME280;8445;51.270;9.434;2023-12-07T12:26:45;99883.84;;;5.00;75.38
16664;BME280;8445;51.270;9.434;2023-12-07T12:29:14;99882.34;;;4.98;75.52
16664;BME280;8445;51.270;9.434;2023-12-07T12:31:41;99885.81;;;4.98;75.65
16664;BME280;8445;51.270;9.434;2023-12-07T12:34:12;99875.25;;;4.98;75.37
16664;BME280;8445;51.270;9.434;2023-12-07T12:36:38;99860.19;;;4.81;75.22
16664;BME280;8445;51.270;9.434;2023-12-07T12:39:05;99871.84;;;4.79;75.56
16664;BME280;8445;51.270;9.434;2023-12-07T12:41:34;99853.97;;;4.63;75.56
16664;BME280;8445;51.270;9.434;2023-12-07T12:44:01;99853.59;;;4.58;75.37
16664;BME280;8445;51.270;9.434;2023-12-07T12:46:33;99842.38;;;4.46;75.72
16664;BME280;8445;51.270;9.434;2023-12-07T12:49:00;99853.72;;;4.56;75.51
16664;BME280;8445;51.270;9.434;2023-12-07T12:51:30;99839.56;;;4.57;75.24
16664;BME280;8445;51.270;9.434;2023-12-07T12:53:59;99842.88;;;4.59;75.70
16664;BME280;8445;51.270;9.434;2023-12-07T12:56:27;99831.66;;;4.57;75.33
16664;BME280;8445;51.270;9.434;2023-12-07T12:58:56;99830.50;;;4.69;75.81
16664;BME280;8445;51.270;9.434;2023-12-07T13:01:23;99836.44;;;4.81;75.22
16664;BME280;8445;51.270;9.434;2023-12-07T13:03:49;99840.94;;;4.98;74.99
16664;BME280;8445;51.270;9.434;2023-12-07T13:06:17;99847.56;;;5.02;74.82
16664;BME280;8445;51.270;9.434;2023-12-07T13:08:46;99825.63;;;5.02;75.11
16664;BME280;8445;51.270;9.434;2023-12-07T13:11:19;99841.44;;;5.12;74.32
16664;BME280;8445;51.270;9.434;2023-12-07T13:13:47;99834.06;;;5.05;74.57
16664;BME280;8445;51.270;9.434;2023-12-07T13:16:20;99835.81;;;4.97;74.26
16664;BME280;8445;51.270;9.434;2023-12-07T13:18:47;99832.06;;;4.90;74.65
16664;BME280;8445;51.270;9.434;2023-12-07T13:21:14;99815.75;;;4.77;74.02
16664;BME280;8445;51.270;9.434;2023-12-07T13:23:41;99829.63;;;4.79;74.47
16664;BME280;8445;51.270;9.434;2023-12-07T13:26:08;99826.81;;;4.80;74.30